createdAt,value
2019-02-18T00:25:29.979Z,8.00
2019-02-18T00:54:44.312Z,8.10
2019-02-18T00:58:51.006Z,8.10
2019-02-18T01:50:43.569Z,7.90
2019-02-18T01:54:51.063Z,7.90
2019-02-18T02:23:39.932Z,7.90
2019-02-18T02:27:47.439Z,7.90
2019-02-18T02:31:54.121Z,7.90
2019-02-18T02:36:03.205Z,7.90
2019-02-18T02:40:10.520Z,7.90
2019-02-18T02:44:17.691Z,8.90
2019-02-18T02:48:45.926Z,7.90
2019-02-18T02:52:54.788Z,7.80
2019-02-18T02:57:02.617Z,7.80
2019-02-18T03:01:09.547Z,7.80
2019-02-18T03:05:18.799Z,7.80
2019-02-18T03:09:24.870Z,7.80
2019-02-18T03:13:34.246Z,7.80
2019-02-18T04:01:30.992Z,7.70
2019-02-18T04:05:41.727Z,7.70
2019-02-18T04:09:49.296Z,7.70
2019-02-18T04:13:56.779Z,7.70
2019-02-18T04:18:05.184Z,7.80
2019-02-18T05:29:48.582Z,8.00
2019-02-18T05:34:00.796Z,8.00
2019-02-18T05:48:00.932Z,8.10
2019-02-18T06:16:29.084Z,8.10
2019-02-18T06:20:39.903Z,8.20
2019-02-18T06:55:06.336Z,8.80
2019-02-18T06:59:34.033Z,8.90
2019-02-18T07:08:59.148Z,8.90
2019-02-18T07:13:07.313Z,9.00
2019-02-18T07:42:07.013Z,9.70
2019-02-18T07:46:14.492Z,9.70
2019-02-18T07:50:22.192Z,9.80
2019-02-18T07:54:36.478Z,10.00
2019-02-18T07:58:46.970Z,10.10
2019-02-18T08:02:54.963Z,10.20
2019-02-18T08:07:07.304Z,10.40
2019-02-18T08:11:15.067Z,10.50
2019-02-18T08:15:30.998Z,10.50
2019-02-18T08:19:39.430Z,10.80
2019-02-18T08:23:47.455Z,10.90
2019-02-18T08:33:14.403Z,11.30
2019-02-18T08:37:25.492Z,11.40
2019-02-18T08:41:33.133Z,11.50
2019-02-18T08:45:41.961Z,11.40
2019-02-18T09:09:51.215Z,11.20
2019-02-18T09:18:07.728Z,11.30
2019-02-18T09:22:34.854Z,11.30
2019-02-18T09:26:46.580Z,11.70
2019-02-18T09:30:56.205Z,12.10
2019-02-18T09:35:04.745Z,12.40
2019-02-18T09:39:29.996Z,12.40
2019-02-18T09:43:27.712Z,12.20
2019-02-18T09:47:34.128Z,12.20
2019-02-18T09:51:40.699Z,12.40
2019-02-18T09:55:48.260Z,12.60
2019-02-18T09:59:55.903Z,12.80
2019-02-18T10:04:03.784Z,12.90
2019-02-18T10:08:10.651Z,12.70
2019-02-18T10:12:25.520Z,12.80
2019-02-18T10:16:34.132Z,12.90
2019-02-18T10:20:44.936Z,13.20
2019-02-18T10:24:52.879Z,13.40
2019-02-18T10:29:00.888Z,13.80
2019-02-18T10:33:09.175Z,13.70
2019-02-18T10:37:17.330Z,13.60
2019-02-18T10:41:24.118Z,13.40
2019-02-18T10:45:30.857Z,13.70
2019-02-18T10:49:39.501Z,13.50
2019-02-18T10:59:15.499Z,13.50
2019-02-18T11:03:22.908Z,14.10
2019-02-18T11:07:54.426Z,14.30
2019-02-18T11:12:01.174Z,14.40
2019-02-18T11:16:12.908Z,14.60
2019-02-18T11:20:20.674Z,14.50
2019-02-18T11:24:27.822Z,14.10
2019-02-18T11:33:40.611Z,14.30
2019-02-18T11:41:56.690Z,14.00
2019-02-18T11:46:03.098Z,13.80
2019-02-18T12:05:21.483Z,13.80
2019-02-18T12:09:27.940Z,13.90
2019-02-18T12:13:35.046Z,13.80
2019-02-18T13:12:31.006Z,13.20
2019-02-18T13:30:53.054Z,12.90
2019-02-18T13:35:01.003Z,13.00
2019-02-18T14:12:36.228Z,12.90
2019-02-18T14:16:45.910Z,12.40
2019-02-18T14:20:55.037Z,12.10
2019-02-18T14:25:25.666Z,11.90
2019-02-18T14:29:34.377Z,11.80
2019-02-18T14:33:46.894Z,11.70
2019-02-18T14:37:53.557Z,11.60
2019-02-18T14:42:00.356Z,11.60
2019-02-18T14:51:17.134Z,11.40
2019-02-18T14:55:46.788Z,11.20
2019-02-18T15:34:14.640Z,10.00
2019-02-18T15:43:04.649Z,9.80
2019-02-18T15:47:11.506Z,9.80
2019-02-18T16:30:44.336Z,8.40
2019-02-18T16:34:52.276Z,8.60
2019-02-18T16:39:04.197Z,8.40
2019-02-18T16:43:13.015Z,8.30
2019-02-18T16:47:25.301Z,8.40
2019-02-18T16:51:32.171Z,8.60
2019-02-18T16:55:41.075Z,8.30
2019-02-18T17:09:54.836Z,7.70
2019-02-18T17:14:01.284Z,7.80
2019-02-18T17:18:12.915Z,7.90
2019-02-18T17:22:26.026Z,7.70
2019-02-18T17:26:36.666Z,7.60
2019-02-18T17:30:44.132Z,7.70
2019-02-18T17:34:51.483Z,7.60
2019-02-18T17:43:16.388Z,7.50
2019-02-18T17:47:22.536Z,7.40
2019-02-18T17:51:33.495Z,7.50
2019-02-18T17:55:42.534Z,7.40
2019-02-18T18:00:15.183Z,7.20
2019-02-18T18:04:21.646Z,7.10
2019-02-18T18:08:32.172Z,7.00
2019-02-18T18:22:36.246Z,6.80
2019-02-18T18:26:57.962Z,6.70
2019-02-18T18:31:07.312Z,6.70
2019-02-18T18:35:15.143Z,6.80
2019-02-18T18:39:22.441Z,6.70
2019-02-18T18:43:33.827Z,6.70
2019-02-18T18:47:58.301Z,6.70
2019-02-18T18:52:06.786Z,6.70
2019-02-18T18:56:16.195Z,6.70
2019-02-18T19:00:25.869Z,6.90
2019-02-18T19:09:33.991Z,6.80
2019-02-18T19:13:42.201Z,6.70
2019-02-18T19:17:49.500Z,6.80
2019-02-18T19:21:55.986Z,6.60
2019-02-18T19:26:04.198Z,6.50
2019-02-18T19:30:13.583Z,6.40
2019-02-18T19:34:20.626Z,6.40
2019-02-18T19:38:31.151Z,6.40
2019-02-18T19:42:39.419Z,6.30
2019-02-18T19:51:37.152Z,6.20
2019-02-18T19:55:47.335Z,6.20
2019-02-18T19:59:58.570Z,6.10
2019-02-18T20:04:08.036Z,6.00
2019-02-18T20:08:17.909Z,6.00
2019-02-18T20:52:00.474Z,5.60
2019-02-18T20:56:10.553Z,5.30
2019-02-18T21:00:20.594Z,6.70
2019-02-18T21:08:35.234Z,5.50
2019-02-18T21:27:03.849Z,5.30
2019-02-18T21:31:10.380Z,5.30
2019-02-18T21:35:18.860Z,5.10
2019-02-18T21:39:27.949Z,5.10
2019-02-18T21:47:46.440Z,5.00
2019-02-18T21:51:53.618Z,5.00
2019-02-18T21:56:05.457Z,5.20
2019-02-18T23:02:09.998Z,4.00
2019-02-18T23:06:22.105Z,4.00
2019-02-18T23:10:31.038Z,4.10
2019-02-18T23:14:40.820Z,4.00
2019-02-18T23:18:49.549Z,4.00
2019-02-18T23:22:56.370Z,3.90
2019-02-18T23:27:57.307Z,4.10
2019-02-18T23:32:04.094Z,4.10
2019-02-18T23:36:11.278Z,4.00
2019-02-18T23:40:21.350Z,3.80
2019-02-18T23:44:28.568Z,3.90
2019-02-18T23:48:35.104Z,3.80
2019-02-18T23:53:04.377Z,3.70
2019-02-18T23:57:11.092Z,3.70
